Startpagina
METAR-TAF:

METAR-TAF

Vliegvelden :

Aéroport Brest Bretagne

Brest, Frankrijk

breedte: 48-27N, lengte: 004-25W, hoogte: 99 m

Actueel weer

Dit bericht is 27 minuten geleden gemaakt, om 11:30 UTC
Wind 18 kt uit het zuidwesten
Temperatuur 17°C
Vochtigheid 100%
Druk 1018 hPa
Zicht: 2100 m
Geheel bewolkt op 300 ft
lichte regen, nevel

METAR: LFRB 041130Z AUTO 22018KT 2100 -RA BR OVC003 17/17 Q1018 BECMG 23015G25KT 3000 -DZ BR

Tijdstip: 13:57 (11:57 UTC)

Verwachting

Dit bericht is 57 minuten geleden gemaakt, om 11:00 UTC
Verwachting geldig van 04 om 12 UTC tot 05 om 18 UTC
Wind 15 kt uit het zuidwesten met uitschieters tot 25 kt
Zicht: 3000 m
Geheel bewolkt op 300 ft
lichte motregen, nevel
Wijzigt naar
van 05 om 10 UTC tot 05 om 12 UTC
Wind 15 kt uit het westnoordwesten met uitschieters tot 25 kt
Zicht 10 km of meer
Verspreide wolken op 1000 ft
Gebroken wolken op 2500 ft

TAF: LFRB 041100Z 0412/0518 23015G25KT 3000 -DZ BR OVC003 BECMG 0510/0512 30015G25KT 9999 NSW SCT010 BKN025

Waarnemingen en weersverwachtingen van meer dan 4000 vliegvelden (METAR en TAF).

De beschikbare stations zijn de gele en rode punten op de kaart.

Ga met uw muis naar het station om de naam te zien.

Klik dan om waarnemingen en weersverwachtingen te zien.

kaart wijzigen: klik op de groene knoppen met een zwart kruis om in te zoomen, op de groene knop met een streepje om uit te zoomen of op de groene pijlen voor aangrenzende kaarten.


METAR-TAF: